Time;durP1;ratioP1;P1;durP2;ratioP2;P2;SDS_P1;SDS_P2;PMS_P1;PMS_P2;Temp;Humidity;BMP_temperature;BMP_pressure;BME280_temperature;BME280_humidity;BME280_pressure;Samples;Min_cycle;Max_cycle;Signal;HPM_P1;HPM_P2
2022/01/24 00:00:23;;;;;;;4.88;3.08;;;4.70;99.90;;;;;;4900647;29;20051;-85
2022/01/24 00:02:49;;;;;;;4.35;3.45;;;5.10;99.90;;;;;;4900516;29;20068;-88
2022/01/24 00:05:18;;;;;;;3.22;2.65;;;4.00;99.90;;;;;;4916210;29;20044;-86
2022/01/24 00:07:47;;;;;;;6.30;4.10;;;4.60;99.90;;;;;;4883060;29;20112;-86
2022/01/24 00:10:18;;;;;;;5.00;4.50;;;4.60;99.90;;;;;;4899720;29;20080;-86
2022/01/24 00:15:52;;;;;;;5.82;3.75;;;4.60;99.90;;;;;;4914901;29;20048;-85
2022/01/24 00:18:25;;;;;;;6.22;4.00;;;3.80;99.90;;;;;;4913376;29;20048;-85
2022/01/24 00:26:47;;;;;;;5.72;4.38;;;4.60;99.90;;;;;;4917370;29;20058;-85
2022/01/24 00:29:19;;;;;;;6.15;4.40;;;4.60;99.90;;;;;;4915101;29;20183;-85
2022/01/24 00:32:01;;;;;;;5.75;4.15;;;4.60;99.90;;;;;;4915393;29;20052;-86
2022/01/24 00:34:26;;;;;;;7.50;4.55;;;4.70;99.90;;;;;;4904100;29;20048;-85
2022/01/24 00:36:53;;;;;;;5.23;4.07;;;5.40;99.90;;;;;;4901604;29;20455;-86
2022/01/24 00:39:25;;;;;;;6.22;3.85;;;4.60;99.90;;;;;;4899814;29;20060;-85
2022/01/24 00:45:04;;;;;;;6.20;3.97;;;4.60;99.90;;;;;;4914573;29;20044;-86
2022/01/24 00:47:24;;;;;;;7.13;4.53;;;4.60;99.90;;;;;;4907214;29;20154;-86
2022/01/24 00:55:18;;;;;;;5.80;4.15;;;3.70;99.90;;;;;;4901674;29;20056;-86
2022/01/24 00:57:44;;;;;;;7.10;4.60;;;4.60;99.90;;;;;;4884014;29;20372;-86
2022/01/24 01:00:10;;;;;;;5.57;4.40;;;5.70;99.90;;;;;;4914321;29;20135;-86
2022/01/24 01:02:39;;;;;;;6.53;4.82;;;4.60;99.90;;;;;;4898857;29;20361;-85
2022/01/24 01:07:54;;;;;;;5.22;4.00;;;4.50;99.90;;;;;;4916030;29;20048;-85
2022/01/24 01:18:37;;;;;;;6.75;4.25;;;3.60;99.90;;;;;;4888900;29;20079;-86
2022/01/24 01:21:15;;;;;;;3.95;3.38;;;4.50;99.90;;;;;;4914343;29;20044;-85
2022/01/24 01:23:49;;;;;;;6.95;4.40;;;4.70;99.90;;;;;;4898406;29;20051;-86
2022/01/24 01:26:27;;;;;;;7.18;4.40;;;4.50;99.90;;;;;;4911438;29;20112;-86
2022/01/24 01:28:56;;;;;;;6.95;4.35;;;5.10;99.90;;;;;;4897269;29;20052;-85
2022/01/24 01:34:07;;;;;;;6.95;4.43;;;4.50;99.90;;;;;;4899807;29;20399;-86
2022/01/24 01:55:35;;;;;;;7.85;4.63;;;4.50;99.90;;;;;;4913307;29;20076;-85
2022/01/24 01:58:02;;;;;;;6.78;4.57;;;5.80;99.90;;;;;;4897915;29;20047;-86
2022/01/24 02:00:28;;;;;;;6.95;4.82;;;4.50;99.90;;;;;;4914010;29;20048;-86
2022/01/24 02:02:54;;;;;;;7.37;4.97;;;5.60;99.90;;;;;;4898086;29;20040;-85
2022/01/24 02:05:21;;;;;;;6.53;4.63;;;4.50;99.90;;;;;;4881769;29;20051;-85
2022/01/24 02:07:53;;;;;;;8.10;5.22;;;3.90;99.90;;;;;;4898177;29;20044;-86
2022/01/24 02:10:24;;;;;;;7.32;5.25;;;5.70;99.90;;;;;;4897761;29;20519;-85
2022/01/24 02:12:52;;;;;;;8.88;5.05;;;4.40;99.90;;;;;;4882241;29;20051;-85
2022/01/24 02:18:20;;;;;;;5.85;4.32;;;4.50;99.90;;;;;;4913201;29;20493;-85
2022/01/24 02:21:10;;;;;;;8.65;5.20;;;5.40;99.90;;;;;;4897613;29;20048;-85
2022/01/24 02:23:42;;;;;;;8.43;5.10;;;3.80;99.90;;;;;;4897653;29;20036;-85
2022/01/24 02:26:15;;;;;;;7.95;5.00;;;4.60;99.90;;;;;;4895749;29;20102;-85
2022/01/24 02:33:56;;;;;;;8.25;5.85;;;4.40;99.90;;;;;;4913867;29;20056;-85
2022/01/24 02:36:24;;;;;;;8.90;5.23;;;4.50;99.90;;;;;;4914901;29;20091;-85
2022/01/24 02:49:29;;;;;;;9.73;6.03;;;3.80;99.90;;;;;;4913141;29;20071;-85
2022/01/24 02:52:10;;;;;;;9.13;6.45;;;4.40;99.90;;;;;;4898776;29;20056;-85
2022/01/24 02:54:39;;;;;;;10.82;6.20;;;4.40;99.90;;;;;;4915121;29;20087;-85
2022/01/24 02:57:09;;;;;;;8.18;6.13;;;3.60;99.90;;;;;;4898162;29;20122;-85
2022/01/24 02:59:35;;;;;;;13.80;6.38;;;4.40;99.90;;;;;;4898581;29;20076;-85
2022/01/24 03:02:07;;;;;;;9.98;6.05;;;4.40;99.90;;;;;;4914331;29;20086;-85
2022/01/24 03:04:33;;;;;;;10.88;6.82;;;4.40;99.90;;;;;;4879824;29;20408;-85
2022/01/24 03:06:59;;;;;;;10.30;6.20;;;5.10;99.90;;;;;;4892287;29;20048;-85
2022/01/24 03:09:25;;;;;;;11.10;6.47;;;5.70;99.90;;;;;;4898106;29;20514;-85
2022/01/24 03:12:03;;;;;;;10.20;6.40;;;4.40;99.90;;;;;;4898649;29;20304;-85
2022/01/24 03:14:31;;;;;;;;;;;4.30;99.90;;;;;;4914733;29;20052;-86
2022/01/24 03:16:58;;;;;;;10.13;6.82;;;5.30;99.90;;;;;;4914593;29;20306;-85
2022/01/24 03:19:26;;;;;;;11.00;6.13;;;4.40;99.90;;;;;;4898259;29;20112;-85
2022/01/24 03:21:52;;;;;;;11.45;6.72;;;4.40;99.90;;;;;;4901218;29;20396;-85
2022/01/24 03:24:18;;;;;;;12.30;7.10;;;4.40;99.90;;;;;;4899069;29;20112;-85
2022/01/24 03:26:44;;;;;;;14.13;8.77;;;4.30;99.90;;;;;;4901925;29;20059;-85
2022/01/24 03:29:10;;;;;;;12.30;7.20;;;4.40;99.90;;;;;;4917660;29;20179;-85
2022/01/24 03:31:38;;;;;;;14.73;7.67;;;5.60;99.90;;;;;;4901848;29;20143;-85
2022/01/24 03:34:06;;;;;;;11.38;7.10;;;4.40;99.90;;;;;;4917412;29;20059;-85
2022/01/24 03:36:35;;;;;;;12.63;6.67;;;4.50;99.90;;;;;;4901404;29;20040;-85
2022/01/24 03:39:03;;;;;;;13.25;7.78;;;5.60;99.90;;;;;;4916136;29;20047;-85
2022/01/24 03:41:31;;;;;;;12.85;7.85;;;4.40;99.90;;;;;;4904885;29;20127;-85
2022/01/24 03:44:02;;;;;;;13.93;8.25;;;4.30;99.90;;;;;;4917424;29;20059;-86
2022/01/24 03:46:36;;;;;;;14.38;7.63;;;4.30;99.90;;;;;;4900696;29;20123;-85
2022/01/24 03:49:19;;;;;;;11.70;7.28;;;4.30;99.90;;;;;;4901859;29;20052;-86
2022/01/24 03:51:45;;;;;;;13.07;8.25;;;4.40;99.90;;;;;;4888777;29;20052;-85
2022/01/24 03:54:11;;;;;;;14.70;8.73;;;4.40;99.90;;;;;;4901165;29;20049;-85
2022/01/24 03:56:37;;;;;;;12.10;7.93;;;4.30;99.90;;;;;;4901089;29;20051;-85
2022/01/24 03:59:03;;;;;;;12.40;7.80;;;5.40;99.90;;;;;;4885687;29;20567;-85
2022/01/24 04:01:31;;;;;;;17.50;8.03;;;5.30;99.90;;;;;;4900409;29;20036;-85
2022/01/24 04:03:56;;;;;;;12.70;7.85;;;4.30;99.90;;;;;;4917268;29;20066;-85
2022/01/24 04:06:22;;;;;;;13.33;8.20;;;4.30;99.90;;;;;;4883253;29;20048;-85
2022/01/24 04:08:48;;;;;;;12.10;8.03;;;4.30;99.90;;;;;;4901253;29;20052;-85
2022/01/24 04:11:16;;;;;;;13.87;7.67;;;4.30;99.90;;;;;;4900741;29;20084;-85
2022/01/24 04:13:44;;;;;;;16.05;8.98;;;4.30;99.90;;;;;;4916596;29;20052;-85
2022/01/24 04:16:29;;;;;;;13.75;8.88;;;3.40;99.90;;;;;;4901301;29;20051;-85
2022/01/24 04:21:48;;;;;;;15.05;8.63;;;4.30;99.90;;;;;;4902876;29;20048;-86
2022/01/24 04:24:19;;;;;;;14.77;9.00;;;4.30;99.90;;;;;;4900904;29;20048;-85
2022/01/24 04:26:47;;;;;;;14.38;9.00;;;4.20;99.90;;;;;;4900058;29;20087;-85
2022/01/24 04:29:13;;;;;;;14.10;8.82;;;4.30;99.90;;;;;;4900734;29;20048;-86
2022/01/24 04:31:39;;;;;;;19.40;9.27;;;4.30;99.90;;;;;;4900241;29;20058;-85
2022/01/24 04:34:05;;;;;;;18.83;10.20;;;4.30;99.90;;;;;;4900748;29;20066;-85
2022/01/24 04:36:33;;;;;;;17.20;9.80;;;4.30;99.90;;;;;;4915228;29;20044;-85
2022/01/24 04:39:05;;;;;;;13.70;8.23;;;4.30;99.90;;;;;;4900391;29;20519;-85
2022/01/24 04:41:36;;;;;;;11.02;8.55;;;3.60;99.90;;;;;;4915313;29;20060;-85
2022/01/24 04:47:13;;;;;;;12.43;7.75;;;4.30;99.90;;;;;;4916080;29;20074;-85
2022/01/24 04:54:52;;;;;;;14.07;8.60;;;4.30;99.90;;;;;;4916349;29;20054;-85
2022/01/24 04:57:22;;;;;;;11.93;7.83;;;4.30;99.90;;;;;;4900275;29;20443;-85
2022/01/24 04:59:50;;;;;;;15.52;7.85;;;4.20;99.90;;;;;;4900158;29;20080;-85
2022/01/24 05:02:18;;;;;;;14.60;7.43;;;4.30;99.90;;;;;;4899762;29;20119;-85
2022/01/24 05:04:53;;;;;;;13.55;7.57;;;4.30;99.90;;;;;;4899858;29;20115;-85
2022/01/24 05:07:22;;;;;;;12.25;8.02;;;3.90;99.90;;;;;;4900122;29;20056;-85
2022/01/24 05:09:59;;;;;;;13.82;8.05;;;4.30;99.90;;;;;;4915813;29;20058;-85
2022/01/24 05:25:55;;;;;;;15.57;8.57;;;3.60;99.90;;;;;;4915094;29;20205;-85
2022/01/24 05:28:23;;;;;;;13.35;8.18;;;4.30;99.90;;;;;;4900093;29;20542;-85
2022/01/24 05:30:50;;;;;;;11.45;7.72;;;3.70;99.90;;;;;;4898958;29;20106;-85
2022/01/24 05:33:18;;;;;;;13.32;8.70;;;5.40;99.90;;;;;;4884266;29;20047;-85
2022/01/24 05:35:44;;;;;;;13.90;8.18;;;5.40;99.90;;;;;;4898890;29;20088;-85
2022/01/24 05:38:13;;;;;;;14.87;7.87;;;3.90;99.90;;;;;;4899230;29;20075;-86
2022/01/24 05:40:41;;;;;;;12.77;8.35;;;4.30;99.90;;;;;;4901430;29;20055;-86
2022/01/24 05:43:07;;;;;;;13.85;8.60;;;4.20;99.90;;;;;;4918336;29;20047;-85
2022/01/24 05:45:34;;;;;;;10.70;8.10;;;3.40;99.90;;;;;;4902067;29;20044;-86
2022/01/24 05:48:00;;;;;;;10.70;8.20;;;4.20;99.90;;;;;;4918492;29;20077;-85
2022/01/24 05:50:26;;;;;;;11.23;6.95;;;4.20;99.90;;;;;;4915939;29;20051;-85
2022/01/24 05:52:54;;;;;;;11.37;7.63;;;4.20;99.90;;;;;;4937347;29;20047;-85
2022/01/24 05:55:20;;;;;;;18.30;9.25;;;4.20;99.90;;;;;;4879361;29;20074;-85
2022/01/24 05:57:52;;;;;;;15.57;7.80;;;4.20;99.90;;;;;;4917370;29;20130;-86
2022/01/24 06:00:19;;;;;;;19.85;9.00;;;4.20;99.90;;;;;;4902782;29;20054;-85
2022/01/24 06:02:44;;;;;;;11.43;7.63;;;4.20;99.90;;;;;;4901568;29;20514;-85
2022/01/24 06:05:10;;;;;;;15.13;8.07;;;4.20;99.90;;;;;;4917763;29;20048;-86
2022/01/24 06:07:36;;;;;;;13.67;7.87;;;4.30;99.90;;;;;;4901800;29;20048;-86
2022/01/24 06:10:02;;;;;;;12.33;8.47;;;4.20;99.90;;;;;;4917783;29;20044;-85
2022/01/24 06:12:31;;;;;;;11.55;8.25;;;4.20;99.90;;;;;;4901990;29;20047;-85
2022/01/24 06:14:59;;;;;;;15.38;7.60;;;5.40;99.90;;;;;;4917721;29;20502;-85
2022/01/24 06:17:27;;;;;;;14.07;8.00;;;4.20;99.90;;;;;;4900030;29;20040;-85
2022/01/24 06:19:53;;;;;;;15.40;8.13;;;4.20;99.90;;;;;;4917410;29;20051;-85
2022/01/24 06:22:20;;;;;;;12.50;7.57;;;4.20;99.90;;;;;;4901770;29;20132;-85
2022/01/24 06:24:48;;;;;;;16.95;8.48;;;4.20;99.90;;;;;;4917510;29;20495;-86
2022/01/24 06:27:17;;;;;;;12.95;7.88;;;4.20;99.90;;;;;;4901928;29;20040;-86
2022/01/24 06:29:43;;;;;;;12.30;7.82;;;4.20;99.90;;;;;;4902182;29;20122;-85
2022/01/24 06:32:11;;;;;;;12.20;7.27;;;4.30;99.90;;;;;;4917782;29;20044;-85
2022/01/24 06:34:38;;;;;;;9.07;7.63;;;4.50;99.90;;;;;;4918362;29;20407;-85
2022/01/24 06:37:04;;;;;;;14.80;8.03;;;4.20;99.90;;;;;;4902862;29;20142;-85
2022/01/24 06:39:30;;;;;;;16.90;8.23;;;4.00;99.90;;;;;;4921451;29;20330;-85
2022/01/24 06:42:11;;;;;;;10.50;7.43;;;4.10;99.90;;;;;;4919882;29;20056;-85
2022/01/24 06:44:39;;;;;;;14.98;8.55;;;4.20;99.90;;;;;;4898840;29;20091;-85
2022/01/24 06:47:05;;;;;;;18.60;9.02;;;4.20;99.90;;;;;;4901690;29;20098;-85
2022/01/24 06:49:31;;;;;;;17.05;8.82;;;4.20;99.90;;;;;;4901516;29;20054;-85
2022/01/24 06:52:00;;;;;;;14.67;9.83;;;4.20;99.90;;;;;;4917455;29;20094;-85
2022/01/24 06:54:25;;;;;;;18.10;9.77;;;4.20;99.90;;;;;;4901682;29;20043;-85
2022/01/24 06:56:51;;;;;;;13.63;8.37;;;4.30;99.90;;;;;;4901208;29;20059;-86
2022/01/24 06:59:17;;;;;;;13.03;8.40;;;4.20;99.90;;;;;;4887757;29;20068;-85
2022/01/24 07:01:43;;;;;;;14.83;8.83;;;4.20;99.90;;;;;;4896395;29;20055;-86
2022/01/24 07:04:08;;;;;;;12.10;8.17;;;4.90;99.90;;;;;;4899042;29;20044;-86
2022/01/24 07:06:34;;;;;;;15.63;9.10;;;4.10;99.90;;;;;;4921718;29;20083;-86
2022/01/24 07:09:03;;;;;;;13.85;7.68;;;4.80;99.90;;;;;;4904904;29;20047;-86
2022/01/24 07:11:29;;;;;;;14.13;8.85;;;4.20;99.90;;;;;;4905280;29;20058;-86
2022/01/24 07:13:55;;;;;;;18.70;9.53;;;4.20;99.90;;;;;;4920634;29;20047;-86
2022/01/24 07:16:21;;;;;;;17.37;8.70;;;5.10;99.90;;;;;;4921409;29;20347;-87
2022/01/24 07:19:03;;;;;;;17.60;9.13;;;4.70;99.90;;;;;;4919639;29;20462;-86
2022/01/24 07:21:30;;;;;;;13.32;8.23;;;3.80;99.90;;;;;;4905460;29;20093;-87
2022/01/24 07:23:55;;;;;;;11.15;7.70;;;4.20;99.90;;;;;;4904060;29;20436;-86
2022/01/24 07:26:21;;;;;;;13.17;7.97;;;3.40;99.90;;;;;;4905686;29;20059;-86
2022/01/24 07:28:47;;;;;;;15.47;8.47;;;4.80;99.90;;;;;;4904381;29;20047;-86
2022/01/24 07:31:13;;;;;;;13.73;8.57;;;4.20;99.90;;;;;;4905300;29;20047;-83
2022/01/24 07:33:40;;;;;;;13.03;8.87;;;4.20;99.90;;;;;;4904621;29;20070;-86
2022/01/24 07:36:06;;;;;;;15.57;8.88;;;4.20;99.90;;;;;;4920224;29;20047;-86
2022/01/24 07:38:31;;;;;;;16.43;9.23;;;4.20;99.90;;;;;;4905890;29;20134;-87
2022/01/24 07:41:00;;;;;;;14.47;8.77;;;4.20;99.90;;;;;;4904199;29;20450;-86
2022/01/24 07:43:26;;;;;;;12.57;7.88;;;4.20;99.90;;;;;;4920204;29;20138;-86
2022/01/24 07:45:52;;;;;;;18.13;9.33;;;4.10;99.90;;;;;;4920417;29;20082;-87
2022/01/24 07:48:19;;;;;;;15.00;8.67;;;4.20;99.90;;;;;;4904775;29;20047;-87
2022/01/24 07:50:46;;;;;;;15.65;10.55;;;4.20;99.90;;;;;;4904989;29;20495;-87
2022/01/24 07:53:14;;;;;;;18.15;9.60;;;4.20;99.90;;;;;;4918466;29;20174;-86
2022/01/24 07:55:43;;;;;;;19.92;10.60;;;5.40;99.90;;;;;;4923318;29;20044;-89
2022/01/24 07:58:09;;;;;;;21.08;9.88;;;4.20;99.90;;;;;;4889431;29;20082;-86
2022/01/24 08:00:36;;;;;;;18.75;10.95;;;4.10;99.90;;;;;;4904410;29;20056;-84
2022/01/24 08:03:02;;;;;;;20.23;10.95;;;4.20;99.90;;;;;;4904161;29;20131;-83
2022/01/24 08:05:28;;;;;;;25.27;11.90;;;5.20;99.90;;;;;;4888629;29;20619;-86
2022/01/24 08:07:54;;;;;;;19.02;11.70;;;3.40;99.90;;;;;;4873552;29;20107;-85
2022/01/24 08:10:23;;;;;;;22.07;13.27;;;5.30;99.90;;;;;;4904157;29;20055;-85
2022/01/24 08:12:49;;;;;;;26.02;13.45;;;4.20;99.90;;;;;;4920712;29;20374;-86
2022/01/24 08:15:15;;;;;;;25.37;13.60;;;4.10;99.90;;;;;;4919329;29;20175;-86
2022/01/24 08:17:47;;;;;;;21.03;12.70;;;4.20;99.90;;;;;;4920242;29;20525;-85
2022/01/24 08:20:15;;;;;;;24.20;12.50;;;4.20;99.90;;;;;;4903595;29;20076;-85
2022/01/24 08:22:41;;;;;;;21.58;12.95;;;5.50;99.90;;;;;;4932119;29;20419;-86
2022/01/24 08:25:09;;;;;;;27.77;14.70;;;4.30;99.90;;;;;;4900973;29;20043;-86
2022/01/24 08:27:35;;;;;;;28.83;14.43;;;4.20;99.90;;;;;;4916077;29;20127;-84
2022/01/24 08:30:21;;;;;;;;;;;4.30;99.90;;;;;;4894772;29;20054;-86
2022/01/24 08:32:47;;;;;;;23.15;14.13;;;4.20;99.90;;;;;;4919557;29;19929;-86
2022/01/24 08:35:20;;;;;;;28.10;14.10;;;5.50;99.90;;;;;;4904222;29;20051;-87
2022/01/24 08:37:46;;;;;;;27.13;13.55;;;5.30;99.90;;;;;;4903601;29;20051;-87
2022/01/24 08:40:21;;;;;;;25.42;14.90;;;4.20;99.90;;;;;;4915533;29;20139;-87
2022/01/24 08:42:57;;;;;;;27.73;14.90;;;4.20;99.90;;;;;;4899549;29;20067;-86
2022/01/24 08:48:11;;;;;;;34.97;17.63;;;4.40;99.90;;;;;;4901633;29;20487;-85
2022/01/24 08:50:42;;;;;;;45.40;18.98;;;4.30;99.90;;;;;;4915251;29;20127;-86
2022/01/24 08:53:11;;;;;;;37.13;21.73;;;5.40;99.90;;;;;;4931532;29;20135;-85
2022/01/24 08:55:38;;;;;;;44.65;21.60;;;4.30;99.90;;;;;;4899502;29;20454;-85
2022/01/24 08:58:05;;;;;;;39.90;20.13;;;4.40;99.90;;;;;;4908785;29;20132;-85
2022/01/24 09:00:31;;;;;;;44.67;21.52;;;4.30;99.90;;;;;;4898837;29;20059;-85
2022/01/24 09:02:57;;;;;;;39.65;23.20;;;4.30;99.90;;;;;;4900230;29;20495;-88
2022/01/24 09:05:24;;;;;;;48.07;23.00;;;4.30;99.90;;;;;;4915030;29;20044;-86
2022/01/24 09:07:54;;;;;;;46.08;22.98;;;4.30;99.90;;;;;;4916044;29;20414;-86
2022/01/24 09:10:24;;;;;;;45.10;22.73;;;5.60;99.90;;;;;;4900086;29;20113;-87
2022/01/24 09:12:52;;;;;;;47.38;23.50;;;4.30;99.90;;;;;;4901391;29;20087;-86
2022/01/24 09:15:19;;;;;;;47.83;23.80;;;4.40;99.90;;;;;;4884464;29;20423;-85
2022/01/24 09:17:45;;;;;;;52.28;25.08;;;4.40;99.90;;;;;;4900135;29;20127;-85
2022/01/24 09:20:14;;;;;;;42.53;23.93;;;5.10;99.90;;;;;;4915590;29;20491;-85
2022/01/24 09:22:46;;;;;;;43.75;23.17;;;4.40;99.90;;;;;;4899149;29;20474;-86
2022/01/24 09:25:15;;;;;;;45.38;23.55;;;4.40;99.90;;;;;;4906147;29;20076;-87
2022/01/24 09:27:42;;;;;;;45.28;24.30;;;4.50;99.90;;;;;;4899383;29;20047;-85
2022/01/24 09:30:10;;;;;;;44.42;23.73;;;4.40;99.90;;;;;;4899188;29;20052;-85
2022/01/24 09:32:36;;;;;;;46.60;23.65;;;4.40;99.90;;;;;;4890296;29;20466;-84
2022/01/24 09:35:05;;;;;;;47.58;24.38;;;4.40;99.90;;;;;;4898161;29;20135;-84
2022/01/24 09:37:31;;;;;;;48.80;25.75;;;4.40;99.90;;;;;;4900731;29;20055;-81
2022/01/24 09:39:57;;;;;;;47.30;23.88;;;4.50;99.90;;;;;;4899606;29;20048;-81
2022/01/24 09:42:23;;;;;;;42.67;23.70;;;4.50;99.90;;;;;;4892277;29;20411;-82
2022/01/24 09:44:49;;;;;;;48.57;24.77;;;5.00;99.90;;;;;;4914128;29;20055;-83
2022/01/24 09:47:16;;;;;;;50.83;24.60;;;4.50;99.90;;;;;;4898093;29;20134;-82
2022/01/24 09:49:45;;;;;;;52.03;25.10;;;4.50;99.90;;;;;;4899623;29;20056;-82
2022/01/24 09:52:17;;;;;;;52.38;23.73;;;4.60;99.90;;;;;;4898612;29;20130;-83
2022/01/24 09:54:42;;;;;;;38.17;19.00;;;4.50;99.90;;;;;;4898783;29;20131;-82
2022/01/24 09:57:08;;;;;;;36.67;18.30;;;4.50;99.90;;;;;;4899334;29;20143;-82
2022/01/24 09:59:34;;;;;;;31.63;17.30;;;5.80;99.90;;;;;;4899914;29;20114;-82
2022/01/24 10:02:01;;;;;;;36.23;18.40;;;4.70;99.90;;;;;;4899296;29;20059;-82
2022/01/24 10:04:28;;;;;;;28.23;17.10;;;4.60;99.90;;;;;;4898980;29;20040;-82
2022/01/24 10:07:07;;;;;;;32.75;18.25;;;4.60;99.90;;;;;;4899421;29;20491;-82
2022/01/24 10:09:51;;;;;;;34.00;19.08;;;4.70;99.90;;;;;;4915473;29;20387;-85
2022/01/24 10:18:11;;;;;;;43.45;21.48;;;4.70;99.90;;;;;;4914786;29;20107;-84
2022/01/24 10:20:40;;;;;;;43.38;22.73;;;4.70;99.90;;;;;;4891746;29;20087;-84
2022/01/24 10:23:24;;;;;;;38.63;21.45;;;4.70;99.90;;;;;;4898403;29;20064;-89
2022/01/24 10:26:03;;;;;;;39.78;22.88;;;4.70;99.90;;;;;;4899748;29;20055;-86
2022/01/24 10:28:49;;;;;;;38.78;20.50;;;4.50;99.90;;;;;;4889716;29;20135;-87
2022/01/24 10:31:28;;;;;;;33.03;19.70;;;4.70;99.90;;;;;;4914971;29;20079;-87
2022/01/24 10:36:40;;;;;;;33.22;20.85;;;4.00;99.90;;;;;;4919433;29;20050;-85
2022/01/24 10:42:59;;;;;;;37.92;21.10;;;4.60;99.90;;;;;;4917049;29;20056;-86
2022/01/24 10:45:14;;;;;;;36.67;22.02;;;4.80;99.90;;;;;;4928128;29;20052;-86
2022/01/24 10:47:45;;;;;;;41.88;23.77;;;4.80;99.90;;;;;;4903049;29;20044;-85
2022/01/24 10:50:38;;;;;;;42.28;22.83;;;4.80;99.90;;;;;;4902441;29;20434;-84
2022/01/24 10:53:14;;;;;;;46.13;24.20;;;4.80;99.90;;;;;;4903102;29;20052;-84
2022/01/24 10:55:42;;;;;;;49.65;25.58;;;4.80;99.90;;;;;;4899647;29;20056;-83
2022/01/24 10:58:16;;;;;;;47.60;24.70;;;4.80;99.90;;;;;;4889542;29;20083;-84
2022/01/24 11:00:42;;;;;;;46.00;24.55;;;4.80;99.90;;;;;;4903214;29;20095;-83
2022/01/24 11:03:19;;;;;;;41.67;23.80;;;4.80;99.90;;;;;;4886883;29;20171;-85
2022/01/24 11:05:46;;;;;;;45.40;24.92;;;4.80;99.90;;;;;;4902869;29;20067;-80
2022/01/24 11:08:13;;;;;;;;;;;4.80;99.90;;;;;;4918150;29;20408;-82
2022/01/24 11:10:43;;;;;;;47.67;25.38;;;5.60;99.90;;;;;;4915768;29;19946;-82
2022/01/24 11:13:10;;;;;;;50.80;25.73;;;3.80;99.90;;;;;;4886465;29;20047;-83
2022/01/24 11:15:42;;;;;;;58.80;28.33;;;4.90;99.90;;;;;;4898432;29;20055;-82
2022/01/24 11:18:08;;;;;;;40.50;23.10;;;4.90;99.90;;;;;;4917105;29;20040;-83
2022/01/24 11:20:39;;;;;;;50.67;25.83;;;4.90;99.90;;;;;;4885364;29;20059;-82
2022/01/24 11:23:08;;;;;;;45.83;24.77;;;4.90;99.90;;;;;;4900930;29;20099;-84
2022/01/24 11:25:39;;;;;;;34.53;19.70;;;4.80;99.90;;;;;;4885922;29;20147;-84
2022/01/24 11:28:06;;;;;;;35.72;18.63;;;4.90;99.90;;;;;;4902664;29;20491;-84
2022/01/24 11:30:38;;;;;;;40.75;22.27;;;4.90;99.90;;;;;;4901341;29;20048;-83
2022/01/24 11:33:12;;;;;;;38.33;19.73;;;4.80;99.90;;;;;;4903634;29;20432;-83
2022/01/24 11:35:44;;;;;;;40.20;22.25;;;4.90;99.90;;;;;;4898298;29;20058;-82
2022/01/24 11:38:32;;;;;;;41.30;22.73;;;4.80;99.90;;;;;;4915055;29;20047;-84
2022/01/24 11:41:00;;;;;;;;;;;4.80;99.90;;;;;;4902582;29;20044;-83
2022/01/24 11:43:33;;;;;;;41.80;22.92;;;4.80;99.90;;;;;;4906619;29;19930;-84
2022/01/24 11:46:09;;;;;;;41.80;22.73;;;4.80;99.90;;;;;;4917875;29;20048;-84
2022/01/24 11:48:39;;;;;;;40.55;22.75;;;4.90;99.90;;;;;;4901710;29;20060;-83
2022/01/24 11:51:16;;;;;;;43.30;22.67;;;4.90;99.90;;;;;;4917167;29;20080;-83
2022/01/24 11:53:50;;;;;;;38.63;21.58;;;4.90;99.90;;;;;;4917433;29;20142;-86
2022/01/24 11:56:37;;;;;;;45.72;23.08;;;4.20;99.90;;;;;;4917035;29;20047;-86
2022/01/24 11:59:22;;;;;;;41.03;22.15;;;4.80;99.90;;;;;;4899822;29;20063;-83
2022/01/24 12:02:04;;;;;;;40.33;22.77;;;4.80;99.90;;;;;;4896432;29;20052;-83
2022/01/24 12:05:22;;;;;;;47.55;21.60;;;4.90;99.90;;;;;;4900894;29;20051;-83
2022/01/24 12:07:50;;;;;;;39.95;21.15;;;4.80;99.90;;;;;;4850277;29;20050;-83
2022/01/24 12:10:27;;;;;;;36.33;21.23;;;4.80;99.90;;;;;;4896212;29;20467;-84
2022/01/24 12:12:56;;;;;;;43.33;21.67;;;4.80;99.90;;;;;;4899864;29;20060;-85
2022/01/24 12:15:37;;;;;;;44.75;24.30;;;4.80;99.90;;;;;;4909334;29;20566;-85
2022/01/24 12:18:22;;;;;;;42.15;22.60;;;4.50;99.90;;;;;;4899914;29;20056;-83
2022/01/24 12:20:52;;;;;;;43.15;23.15;;;4.80;99.90;;;;;;4921314;29;20047;-83
2022/01/24 12:23:19;;;;;;;38.28;20.42;;;4.90;99.90;;;;;;4899624;29;20523;-84
2022/01/24 12:26:20;;;;;;;37.90;22.73;;;4.80;99.90;;;;;;4913651;29;20048;-84
2022/01/24 12:28:53;;;;;;;33.88;20.35;;;4.90;99.90;;;;;;4900385;29;20567;-85
2022/01/24 12:31:37;;;;;;;34.10;20.70;;;4.80;99.90;;;;;;4914995;29;20047;-82
2022/01/24 12:34:28;;;;;;;36.63;21.85;;;4.80;99.90;;;;;;4915038;29;20063;-86
2022/01/24 12:37:04;;;;;;;40.83;23.55;;;4.80;99.90;;;;;;4895153;29;20589;-83
2022/01/24 12:39:54;;;;;;;42.30;21.30;;;4.80;99.90;;;;;;4900898;29;20051;-85
2022/01/24 12:42:41;;;;;;;45.45;23.95;;;5.00;99.90;;;;;;4900655;29;20067;-84
2022/01/24 12:48:10;;;;;;;38.55;23.52;;;4.80;99.90;;;;;;4915898;29;20087;-84
2022/01/24 12:50:40;;;;;;;40.15;22.70;;;4.70;99.90;;;;;;4899425;29;20550;-84
2022/01/24 12:53:13;;;;;;;48.25;23.85;;;4.30;99.90;;;;;;4900849;29;20440;-84
2022/01/24 12:55:39;;;;;;;48.45;22.38;;;4.80;99.90;;;;;;4899890;29;20056;-84
2022/01/24 12:58:07;;;;;;;37.60;21.23;;;4.80;99.90;;;;;;4899931;29;20044;-84
2022/01/24 13:00:33;;;;;;;44.58;22.13;;;3.80;99.90;;;;;;4915923;29;20448;-84
2022/01/24 13:02:59;;;;;;;46.37;22.70;;;4.90;99.90;;;;;;4900238;29;20044;-84
2022/01/24 13:05:28;;;;;;;36.97;19.20;;;4.30;99.90;;;;;;4900799;29;20055;-84
2022/01/24 13:07:57;;;;;;;37.00;19.95;;;4.80;99.90;;;;;;4915464;29;20059;-84
2022/01/24 13:10:27;;;;;;;35.67;19.45;;;4.80;99.90;;;;;;4900045;29;20075;-84
2022/01/24 13:13:05;;;;;;;31.48;19.00;;;4.80;99.90;;;;;;4915882;29;20047;-84
2022/01/24 13:21:28;;;;;;;25.02;16.52;;;4.90;99.90;;;;;;4916047;29;20052;-84
2022/01/24 13:24:00;;;;;;;25.08;16.20;;;5.30;99.90;;;;;;4914843;29;20053;-84
2022/01/24 13:26:26;;;;;;;29.63;16.83;;;4.70;99.90;;;;;;4900059;29;20551;-84
2022/01/24 13:29:01;;;;;;;32.33;17.02;;;4.80;99.90;;;;;;4899193;29;20155;-84
2022/01/24 13:31:27;;;;;;;24.60;16.35;;;5.20;99.90;;;;;;4899632;29;20451;-84
2022/01/24 13:33:53;;;;;;;30.53;16.97;;;3.90;99.90;;;;;;4899280;29;20048;-84
2022/01/24 13:36:20;;;;;;;26.37;14.90;;;4.70;99.90;;;;;;4900237;29;20051;-84
2022/01/24 13:38:47;;;;;;;;;;;5.80;99.90;;;;;;4869144;29;20052;-84
2022/01/24 13:41:15;;;;;;;23.58;14.68;;;4.70;99.90;;;;;;4899570;29;19982;-84
2022/01/24 13:43:52;;;;;;;29.15;16.88;;;5.90;99.90;;;;;;4898795;29;20488;-84
2022/01/24 13:46:35;;;;;;;21.55;14.65;;;4.70;99.90;;;;;;4899876;29;20127;-84
2022/01/24 13:49:06;;;;;;;27.70;15.98;;;4.70;99.90;;;;;;4900064;29;20052;-85
2022/01/24 13:51:53;;;;;;;32.42;16.75;;;5.70;99.90;;;;;;4904729;29;20049;-84
2022/01/24 13:54:28;;;;;;;32.30;18.60;;;4.70;99.90;;;;;;4914143;29;20066;-84
2022/01/24 13:57:05;;;;;;;37.50;18.70;;;4.70;99.90;;;;;;4898951;29;20316;-83
2022/01/24 13:59:35;;;;;;;35.60;19.52;;;4.70;99.90;;;;;;4899225;29;20048;-84
2022/01/24 14:02:04;;;;;;;38.10;20.20;;;4.70;99.90;;;;;;4915201;29;20056;-84
2022/01/24 14:04:39;;;;;;;32.45;19.38;;;4.70;99.90;;;;;;4899279;29;20052;-84
2022/01/24 14:07:22;;;;;;;33.25;18.88;;;4.70;99.90;;;;;;4915653;29;20214;-84
2022/01/24 14:09:57;;;;;;;39.80;20.17;;;4.70;99.90;;;;;;4899143;29;20059;-84
2022/01/24 14:12:28;;;;;;;34.15;18.98;;;5.60;99.90;;;;;;4914678;29;20048;-84
2022/01/24 14:15:06;;;;;;;33.17;20.10;;;4.60;99.90;;;;;;4898967;29;20395;-84
2022/01/24 14:20:19;;;;;;;34.90;19.02;;;5.80;99.90;;;;;;4914960;29;20562;-84
2022/01/24 14:22:46;;;;;;;34.92;20.73;;;4.60;99.90;;;;;;4913886;29;20052;-84
2022/01/24 14:25:25;;;;;;;32.53;19.42;;;5.00;99.90;;;;;;4880853;29;20052;-84
2022/01/24 14:27:56;;;;;;;30.95;19.52;;;4.60;99.90;;;;;;4898718;29;20055;-84
2022/01/24 14:30:26;;;;;;;33.38;20.60;;;4.70;99.90;;;;;;4915248;29;20055;-83
2022/01/24 14:33:12;;;;;;;30.83;18.73;;;3.90;99.90;;;;;;4898431;29;20494;-84
2022/01/24 14:35:50;;;;;;;34.60;18.23;;;4.60;99.90;;;;;;4899157;29;20052;-84
2022/01/24 14:38:45;;;;;;;29.77;18.90;;;4.60;99.90;;;;;;4899400;29;20400;-84
2022/01/24 14:41:29;;;;;;;33.47;21.08;;;4.60;99.90;;;;;;4899619;29;20207;-84
2022/01/24 14:46:42;;;;;;;33.58;18.00;;;5.50;99.90;;;;;;4905047;29;20051;-84
2022/01/24 14:49:17;;;;;;;36.20;19.67;;;4.50;99.90;;;;;;4918011;29;20056;-84
2022/01/24 14:51:46;;;;;;;34.20;17.45;;;4.50;99.90;;;;;;4902400;29;20047;-85
2022/01/24 14:54:17;;;;;;;32.47;18.27;;;4.50;99.90;;;;;;4917760;29;20172;-84
2022/01/24 14:56:45;;;;;;;29.80;16.35;;;5.50;99.90;;;;;;4918070;29;20044;-84
2022/01/24 14:59:12;;;;;;;36.55;17.02;;;5.60;99.90;;;;;;4902015;29;20114;-84
2022/01/24 15:01:38;;;;;;;32.67;19.75;;;4.50;99.90;;;;;;4919170;29;20127;-86
2022/01/24 15:04:05;;;;;;;31.63;18.67;;;5.00;99.90;;;;;;4917078;29;20430;-84